Time;durP1;ratioP1;P1;durP2;ratioP2;P2;SDS_P1;SDS_P2;PMS_P1;PMS_P2;Temp;Humidity;BMP_temperature;BMP_pressure;BME280_temperature;BME280_humidity;BME280_pressure;Samples;Min_cycle;Max_cycle;Signal;HPM_P1;HPM_P2
2021/10/23 00:00:16;;;;;;;9.65;3.75;;;;;;;;;;6277062;28;20043;-86
2021/10/23 00:03:16;;;;;;;7.47;3.50;;;4.80;99.90;;;;;;6277841;28;20021;-86
2021/10/23 00:06:17;;;;;;;8.63;3.28;;;4.90;99.90;;;;;;6270714;28;20040;-86
2021/10/23 00:09:17;;;;;;;5.03;3.13;;;4.80;99.90;;;;;;6260536;28;20055;-89
2021/10/23 00:12:18;;;;;;;7.90;3.58;;;4.80;99.90;;;;;;6260805;28;20025;-89
2021/10/23 00:15:19;;;;;;;5.85;3.50;;;4.60;99.90;;;;;;6260849;28;20123;-88
2021/10/23 00:18:20;;;;;;;11.30;3.83;;;;;;;;;;6260711;28;20032;-88
2021/10/23 00:21:20;;;;;;;6.40;3.63;;;4.80;99.90;;;;;;6276497;28;20060;-90
2021/10/23 00:24:21;;;;;;;3.60;3.00;;;;;;;;;;6261007;28;20031;-89
2021/10/23 00:27:22;;;;;;;7.72;3.40;;;4.60;99.90;;;;;;6276810;28;20025;-89
2021/10/23 00:30:23;;;;;;;8.05;3.63;;;4.60;99.90;;;;;;6260178;28;20417;-87
2021/10/23 00:33:24;;;;;;;8.52;3.25;;;;;;;;;;6260319;28;20062;-89
2021/10/23 00:36:25;;;;;;;5.03;3.35;;;4.50;99.90;;;;;;6276675;28;20024;-88
2021/10/23 00:39:26;;;;;;;7.28;3.40;;;;;;;;;;6260488;28;20059;-88
2021/10/23 00:42:27;;;;;;;5.95;3.38;;;4.60;99.90;;;;;;6276392;28;20027;-89
2021/10/23 00:45:28;;;;;;;7.57;3.30;;;;;;;;;;6259460;28;20458;-90
2021/10/23 00:48:29;;;;;;;7.63;3.22;;;;;;;;;;6276714;28;20097;-90
2021/10/23 00:51:30;;;;;;;5.10;3.70;;;;;;;;;;6277266;28;20108;-89
2021/10/23 00:54:31;;;;;;;7.90;3.50;;;;;;;;;;6277044;28;20051;-92
2021/10/23 00:57:35;;;;;;;7.03;3.40;;;;;;;;;;6276871;28;20020;-91
2021/10/23 01:00:36;;;;;;;5.88;3.20;;;4.60;99.90;;;;;;6277451;28;20020;-92
2021/10/23 01:03:38;;;;;;;5.85;3.25;;;4.60;99.90;;;;;;6260659;28;20489;-90
2021/10/23 01:06:40;;;;;;;8.52;3.20;;;;;;;;;;6259697;28;20097;-89
2021/10/23 01:09:41;;;;;;;5.00;3.10;;;4.60;99.90;;;;;;6276345;28;20060;-87
2021/10/23 01:12:42;;;;;;;7.90;4.55;;;4.60;99.90;;;;;;6259650;28;20086;-88
2021/10/23 01:15:43;;;;;;;6.15;3.10;;;;;;;;;;6259680;28;20130;-88
2021/10/23 01:18:45;;;;;;;6.28;3.05;;;;;;;;;;6276120;28;20112;-89
2021/10/23 01:21:47;;;;;;;6.35;3.30;;;4.70;99.90;;;;;;6276294;28;20429;-86
2021/10/23 01:24:48;;;;;;;5.60;3.20;;;;;;;;;;6259507;28;20479;-87
2021/10/23 01:27:50;;;;;;;4.82;2.80;;;4.80;99.90;;;;;;6275806;28;20037;-90
2021/10/23 01:30:55;;;;;;;5.10;2.90;;;4.80;99.90;;;;;;6260083;28;20102;-88
2021/10/23 01:33:58;;;;;;;6.70;3.42;;;4.90;99.90;;;;;;6259619;28;20033;-87
2021/10/23 01:37:00;;;;;;;5.07;2.90;;;;;;;;;;6259350;28;20447;-88
2021/10/23 01:40:00;;;;;;;7.45;3.30;;;4.80;99.90;;;;;;6275429;28;20025;-89
2021/10/23 01:43:02;;;;;;;5.55;3.40;;;;;;;;;;6258802;28;20466;-89
2021/10/23 01:46:03;;;;;;;6.00;3.07;;;;;;;;;;6276049;28;20036;-87
2021/10/23 01:49:05;;;;;;;4.95;3.38;;;4.80;99.90;;;;;;6274732;28;20294;-89
2021/10/23 01:52:06;;;;;;;7.22;3.30;;;4.90;99.90;;;;;;6259334;28;20032;-90
2021/10/23 01:55:08;;;;;;;8.48;3.17;;;4.70;99.90;;;;;;6261057;28;20032;-89
2021/10/23 01:58:09;;;;;;;6.95;3.20;;;4.70;99.90;;;;;;6264803;28;20029;-90
2021/10/23 02:01:10;;;;;;;5.60;2.97;;;4.70;99.90;;;;;;6264187;28;20039;-90
2021/10/23 02:04:11;;;;;;;5.95;3.28;;;;;;;;;;6264168;28;20024;-89
2021/10/23 02:07:11;;;;;;;5.13;2.88;;;5.10;99.90;;;;;;6280355;28;20037;-88
2021/10/23 02:10:12;;;;;;;5.68;3.13;;;;;;;;;;6263412;28;20032;-87
2021/10/23 02:13:13;;;;;;;4.68;3.03;;;4.90;99.90;;;;;;6279745;28;20470;-88
2021/10/23 02:16:14;;;;;;;5.55;3.45;;;;;;;;;;6263522;28;20032;-88
2021/10/23 02:19:15;;;;;;;7.75;3.35;;;;;;;;;;6280374;28;20040;-90
2021/10/23 02:22:16;;;;;;;8.50;3.30;;;4.70;99.90;;;;;;6280364;28;20110;-89
2021/10/23 02:25:17;;;;;;;6.88;3.20;;;;;;;;;;6263419;28;20032;-88
2021/10/23 02:28:17;;;;;;;11.13;3.78;;;4.50;99.90;;;;;;6279636;28;20508;-89
2021/10/23 02:31:18;;;;;;;6.95;3.95;;;4.70;99.90;;;;;;6263378;28;20074;-88
2021/10/23 02:34:19;;;;;;;6.85;3.20;;;;;;;;;;6263044;28;20029;-90
2021/10/23 02:37:20;;;;;;;8.18;3.03;;;4.60;99.90;;;;;;6279848;28;20489;-89
2021/10/23 02:40:21;;;;;;;4.07;3.03;;;;;;;;;;6263116;28;20067;-88
2021/10/23 02:43:22;;;;;;;7.22;3.15;;;;;;;;;;6280093;28;20060;-89
2021/10/23 02:46:22;;;;;;;6.43;2.60;;;4.70;99.90;;;;;;6279709;28;20024;-91
2021/10/23 02:49:23;;;;;;;6.05;3.05;;;4.80;99.90;;;;;;6262761;28;20052;-89
2021/10/23 02:52:25;;;;;;;5.22;3.05;;;;;;;;;;6263249;28;20025;-88
2021/10/23 02:55:26;;;;;;;3.47;2.60;;;4.90;99.90;;;;;;6279689;28;20060;-88
2021/10/23 02:58:27;;;;;;;5.40;2.60;;;;;;;;;;6262840;28;20443;-87
2021/10/23 03:01:28;;;;;;;5.75;3.05;;;;;;;;;;6279153;28;20532;-89
2021/10/23 03:04:28;;;;;;;5.38;3.00;;;4.90;99.90;;;;;;6278904;28;20024;-88
2021/10/23 03:07:32;;;;;;;5.78;2.78;;;4.90;99.90;;;;;;6261122;28;20471;-89
2021/10/23 03:10:33;;;;;;;8.25;2.80;;;4.80;99.90;;;;;;6271612;28;20085;-89
2021/10/23 03:13:34;;;;;;;4.05;2.80;;;;;;;;;;6262011;28;20028;-88
2021/10/23 03:16:34;;;;;;;6.55;2.60;;;3.60;99.90;;;;;;6279033;28;20029;-87
2021/10/23 03:19:35;;;;;;;7.07;3.65;;;4.80;99.90;;;;;;6262160;28;20052;-90
2021/10/23 03:22:35;;;;;;;4.78;2.80;;;5.80;99.90;;;;;;6261897;28;20111;-88
2021/10/23 03:25:36;;;;;;;6.00;3.25;;;;;;;;;;6262503;28;20394;-90
2021/10/23 03:28:37;;;;;;;5.15;3.38;;;5.50;99.90;;;;;;6279092;28;20386;-90
2021/10/23 03:31:38;;;;;;;5.85;3.35;;;5.20;99.90;;;;;;6262373;28;20036;-89
2021/10/23 03:34:39;;;;;;;8.25;4.28;;;;;;;;;;6262281;28;20025;-89
2021/10/23 03:37:39;;;;;;;9.07;3.88;;;4.90;99.90;;;;;;6278665;28;20032;-89
2021/10/23 03:40:40;;;;;;;6.45;3.78;;;5.00;99.90;;;;;;6262099;28;20025;-89
2021/10/23 03:43:40;;;;;;;5.65;3.10;;;4.90;99.90;;;;;;6261410;28;20078;-89
2021/10/23 03:46:41;;;;;;;4.88;3.70;;;;;;;;;;6261564;28;20036;-88
2021/10/23 03:49:43;;;;;;;5.47;3.13;;;5.10;99.90;;;;;;6278271;28;20109;-88
2021/10/23 03:52:44;;;;;;;4.43;2.65;;;;;;;;;;6278477;28;20492;-91
2021/10/23 03:55:45;;;;;;;4.65;3.10;;;;;;;;;;6277967;28;20032;-90
2021/10/23 03:58:46;;;;;;;7.00;3.00;;;;;;;;;;6277489;28;20051;-90
2021/10/23 04:01:47;;;;;;;5.25;2.80;;;;;;;;;;6277916;28;20027;-90
2021/10/23 04:04:48;;;;;;;5.18;3.80;;;;;;;;;;6278320;28;20370;-88
2021/10/23 04:07:49;;;;;;;8.05;3.70;;;;;;;;;;6278028;28;20040;-89
2021/10/23 04:10:50;;;;;;;4.50;3.00;;;;;;;;;;6277341;28;20028;-87
2021/10/23 04:13:51;;;;;;;3.90;2.92;;;;;;;;;;6277412;28;20036;-89
2021/10/23 04:16:52;;;;;;;6.85;2.90;;;;;;;;;;6277630;28;20425;-91
2021/10/23 04:19:53;;;;;;;6.10;3.03;;;;;;;;;;6277849;28;20565;-89
2021/10/23 04:22:55;;;;;;;6.65;3.33;;;;;;;;;;6277288;28;20027;-90
2021/10/23 04:25:56;;;;;;;6.65;2.85;;;;;;;;;;6277746;28;20234;-90
2021/10/23 04:28:57;;;;;;;5.90;3.15;;;;;;;;;;6277597;28;20409;-89
2021/10/23 04:31:58;;;;;;;6.00;2.92;;;;;;;;;;6277732;28;20028;-91
2021/10/23 04:34:58;;;;;;;4.72;3.20;;;5.40;99.90;;;;;;6277588;28;20024;-90
2021/10/23 04:37:59;;;;;;;4.03;3.10;;;;;;;;;;6260386;28;20028;-89
2021/10/23 04:41:01;;;;;;;7.30;3.40;;;;;;;;;;6277457;28;20108;-91
2021/10/23 04:44:02;;;;;;;6.85;3.80;;;;;;;;;;6277349;28;20036;-88
2021/10/23 04:47:03;;;;;;;5.32;4.40;;;5.30;99.90;;;;;;6276710;28;20115;-89
2021/10/23 04:50:04;;;;;;;3.53;2.95;;;5.40;99.90;;;;;;6272195;28;20028;-90
2021/10/23 04:53:06;;;;;;;5.05;2.92;;;;;;;;;;6260832;28;20062;-90
2021/10/23 04:56:07;;;;;;;3.85;3.08;;;5.40;99.90;;;;;;6276995;28;20025;-89
2021/10/23 04:59:08;;;;;;;11.07;5.85;;;;;;;;;;6260509;28;20021;-90
2021/10/23 05:02:09;;;;;;;11.30;7.50;;;;;;;;;;6277088;28;20032;-90
2021/10/23 05:05:10;;;;;;;6.00;3.20;;;;;;;;;;6276629;28;20056;-88
2021/10/23 05:08:11;;;;;;;8.50;3.97;;;;;;;;;;6276629;28;20045;-90
2021/10/23 05:11:12;;;;;;;5.07;2.78;;;5.50;99.90;;;;;;6276430;28;20494;-89
2021/10/23 05:14:13;;;;;;;6.38;3.05;;;;;;;;;;6260249;28;20067;-90
2021/10/23 05:17:13;;;;;;;6.40;3.40;;;5.60;99.90;;;;;;6276671;28;20031;-90
2021/10/23 05:20:14;;;;;;;5.47;3.15;;;;;;;;;;6259796;28;20029;-90
2021/10/23 05:23:15;;;;;;;5.10;3.05;;;5.40;99.90;;;;;;6276567;28;20017;-89
2021/10/23 05:26:16;;;;;;;4.93;3.13;;;;;;;;;;6259740;28;20043;-89
2021/10/23 05:29:17;;;;;;;8.10;3.42;;;;;;;;;;6276504;28;20028;-88
2021/10/23 05:32:18;;;;;;;5.57;3.45;;;;;;;;;;6281518;28;20130;-89
2021/10/23 05:35:19;;;;;;;5.18;3.28;;;;;;;;;;6281306;28;20096;-89
2021/10/23 05:38:20;;;;;;;5.65;2.88;;;;;;;;;;6279989;28;20620;-91
2021/10/23 05:41:21;;;;;;;8.07;3.10;;;;;;;;;;6281183;28;20028;-92
2021/10/23 05:44:23;;;;;;;5.75;3.72;;;;;;;;;;6280784;28;20024;-90
2021/10/23 05:47:24;;;;;;;5.40;4.33;;;;;;;;;;6281140;28;20057;-90
2021/10/23 05:50:25;;;;;;;5.47;3.58;;;;;;;;;;6280748;28;20056;-89
2021/10/23 05:53:26;;;;;;;7.70;3.53;;;5.40;99.90;;;;;;6281285;28;20023;-89
2021/10/23 05:56:27;;;;;;;5.25;3.67;;;;;;;;;;6261362;28;20024;-90
2021/10/23 05:59:28;;;;;;;5.57;3.38;;;;;;;;;;6280209;28;20028;-91
2021/10/23 06:02:32;;;;;;;5.38;3.20;;;5.50;99.90;;;;;;6280176;28;20020;-90
2021/10/23 06:05:33;;;;;;;6.78;3.78;;;;;;;;;;6264162;28;20893;-90
2021/10/23 06:08:37;;;;;;;5.78;3.47;;;5.50;99.90;;;;;;6280152;28;20479;-91
2021/10/23 06:11:38;;;;;;;7.22;3.65;;;;;;;;;;6263579;28;20035;-90
2021/10/23 06:14:39;;;;;;;8.95;3.53;;;5.50;99.90;;;;;;6279945;28;20028;-91
2021/10/23 06:17:40;;;;;;;6.82;4.03;;;5.50;99.90;;;;;;6262953;28;20032;-91
2021/10/23 06:20:41;;;;;;;5.90;3.37;;;;;;;;;;6264036;28;20074;-87
2021/10/23 06:23:42;;;;;;;8.73;4.15;;;;;;;;;;6280207;28;20032;-89
2021/10/23 06:26:43;;;;;;;8.50;3.67;;;5.60;99.90;;;;;;6280003;28;20127;-89
2021/10/23 06:29:44;;;;;;;7.72;3.42;;;;;;;;;;6262767;28;20070;-90
2021/10/23 06:32:49;;;;;;;5.40;3.28;;;5.50;99.90;;;;;;6280528;28;20420;-88
2021/10/23 06:35:50;;;;;;;6.57;4.13;;;;;;;;;;6263315;28;20401;-91
2021/10/23 06:38:51;;;;;;;6.38;3.42;;;5.40;99.90;;;;;;6280285;28;20545;-91
2021/10/23 06:41:52;;;;;;;7.30;2.80;;;;;;;;;;6261489;28;20024;-88
2021/10/23 06:44:53;;;;;;;7.40;3.22;;;;;;;;;;6279279;28;20374;-89
2021/10/23 06:47:56;;;;;;;8.65;3.63;;;;;;;;;;6279582;28;20055;-88
2021/10/23 06:50:57;;;;;;;6.55;4.32;;;6.00;99.90;;;;;;6280135;28;20530;-91
2021/10/23 06:53:58;;;;;;;9.25;3.80;;;6.60;99.90;;;;;;6262089;28;20033;-89
2021/10/23 06:56:58;;;;;;;11.98;5.57;;;7.00;99.90;;;;;;6263190;28;20036;-89
2021/10/23 06:59:59;;;;;;;11.15;6.05;;;7.20;99.90;;;;;;6279949;28;20067;-90
2021/10/23 07:03:00;;;;;;;8.43;3.97;;;;;;;;;;6261356;28;20032;-89
2021/10/23 07:06:01;;;;;;;6.50;4.18;;;7.70;99.90;;;;;;6279010;28;20478;-90
2021/10/23 07:09:02;;;;;;;5.15;3.33;;;7.50;99.90;;;;;;6261826;28;20032;-89
2021/10/23 07:12:03;;;;;;;5.50;3.13;;;;;;;;;;6262493;28;20428;-91
2021/10/23 07:15:04;;;;;;;8.70;3.53;;;7.20;99.90;;;;;;6279208;28;20052;-91
2021/10/23 07:18:05;;;;;;;7.65;3.55;;;7.10;99.90;;;;;;6262825;28;20104;-91
2021/10/23 07:21:06;;;;;;;5.47;3.95;;;;;;;;;;6262252;28;20085;-90
2021/10/23 07:24:07;;;;;;;6.43;3.58;;;;;;;;;;6278945;28;20481;-90
2021/10/23 07:27:08;;;;;;;8.23;3.78;;;;;;;;;;6279755;28;20033;-89
2021/10/23 07:30:10;;;;;;;7.43;3.53;;;;;;;;;;6279012;28;20025;-82
2021/10/23 07:33:10;;;;;;;7.05;3.42;;;8.50;99.90;;;;;;6293690;28;20043;-85
2021/10/23 07:36:13;;;;;;;6.53;3.20;;;10.10;99.90;;;;;;6260087;28;20052;-84
2021/10/23 07:39:13;;;;;;;6.50;3.17;;;10.70;99.90;;;;;;6277013;28;20020;-86
2021/10/23 07:42:14;;;;;;;6.03;2.80;;;12.00;99.90;;;;;;6275877;28;20040;-85
2021/10/23 07:45:15;;;;;;;5.78;2.83;;;13.20;99.90;;;;;;6277031;28;20035;-86
2021/10/23 07:48:18;;;;;;;5.30;2.65;;;13.80;99.90;;;;;;6258888;28;20612;-87
2021/10/23 07:51:20;;;;;;;5.50;3.13;;;14.50;99.90;;;;;;6275698;28;20020;-87
2021/10/23 07:54:21;;;;;;;6.40;4.17;;;;;;;;;;6261127;28;20444;-87
2021/10/23 07:57:22;;;;;;;6.10;2.83;;;15.10;99.90;;;;;;6278139;28;20043;-90
2021/10/23 08:00:23;;;;;;;3.70;2.30;;;;;;;;;;6262347;28;20432;-91
2021/10/23 08:03:24;;;;;;;4.88;3.03;;;15.50;98.80;;;;;;6278113;28;20119;-88
2021/10/23 08:06:25;;;;;;;4.88;2.63;;;15.60;99.90;;;;;;6260130;28;20151;-91
2021/10/23 08:09:35;;;;;;;7.05;2.95;;;16.00;97.90;;;;;;6259804;28;20425;-87
2021/10/23 08:12:35;;;;;;;5.95;3.67;;;16.30;99.90;;;;;;6260236;28;20221;-88
2021/10/23 08:15:37;;;;;;;4.75;2.50;;;;;;;;;;6277835;28;20047;-92
2021/10/23 08:18:38;;;;;;;4.20;2.83;;;;;;;;;;6278036;28;20024;-90
2021/10/23 08:21:39;;;;;;;5.38;3.67;;;;;;;;;;6277255;28;20454;-89
2021/10/23 08:24:40;;;;;;;4.72;2.50;;;16.00;99.90;;;;;;6277133;28;20538;-90
2021/10/23 08:27:42;;;;;;;7.45;3.92;;;;;;;;;;6262364;28;20474;-93
2021/10/23 08:30:50;;;;;;;4.85;3.22;;;16.80;92.80;;;;;;6278510;28;20033;-95
2021/10/23 08:33:51;;;;;;;3.78;2.83;;;17.00;92.70;;;;;;6261915;28;20028;-90
2021/10/23 08:36:52;;;;;;;12.63;11.53;;;;;;;;;;6278066;28;20021;-92
2021/10/23 08:39:53;;;;;;;5.82;4.00;;;;;;;;;;6277909;28;20056;-85
2021/10/23 08:42:54;;;;;;;5.82;3.30;;;;;;;;;;6276052;28;20017;-87
2021/10/23 08:45:56;;;;;;;6.20;2.90;;;17.60;92.00;;;;;;6292346;28;20028;-86
2021/10/23 08:48:58;;;;;;;5.53;3.30;;;17.70;92.20;;;;;;6275386;28;20493;-88
2021/10/23 08:51:59;;;;;;;6.00;3.73;;;;;;;;;;6259000;28;20037;-92
2021/10/23 08:54:59;;;;;;;4.93;3.22;;;18.20;93.50;;;;;;6277261;28;20082;-89
2021/10/23 08:58:00;;;;;;;4.97;2.90;;;;;;;;;;6259254;28;20037;-91
2021/10/23 09:01:02;;;;;;;5.80;2.75;;;18.60;92.60;;;;;;6272329;28;20033;-92
2021/10/23 09:07:49;;;;;;;4.10;3.08;;;;;;;;;;6280956;28;20070;-90
2021/10/23 09:14:48;;;;;;;6.47;3.35;;;20.30;84.90;;;;;;6265843;28;20102;-87
2021/10/23 09:17:52;;;;;;;4.18;2.90;;;20.60;67.10;;;;;;6258849;28;20078;-88
2021/10/23 09:20:53;;;;;;;4.97;2.60;;;;;;;;;;6260913;28;20039;-89
2021/10/23 09:23:54;;;;;;;4.68;3.42;;;21.30;66.00;;;;;;6276388;28;20494;-88
2021/10/23 09:27:03;;;;;;;5.45;3.00;;;21.30;76.70;;;;;;6258816;28;20104;-91
2021/10/23 09:30:10;;;;;;;4.63;3.15;;;21.70;61.00;;;;;;6271601;28;20196;-89
2021/10/23 09:33:13;;;;;;;2.95;2.40;;;21.70;76.10;;;;;;6259728;28;20436;-90
2021/10/23 09:36:20;;;;;;;3.08;2.47;;;21.60;75.40;;;;;;6259663;28;20032;-89
2021/10/23 09:39:37;;;;;;;4.70;2.30;;;21.80;71.90;;;;;;6258586;28;20036;-88
2021/10/23 09:42:38;;;;;;;3.83;2.85;;;;;;;;;;6276500;28;20036;-90
2021/10/23 09:45:59;;;;;;;4.82;2.95;;;22.00;57.00;;;;;;6273325;28;20024;-90
2021/10/23 09:49:00;;;;;;;2.20;1.90;;;;;;;;;;6278644;28;20048;-90
2021/10/23 09:52:08;;;;;;;3.63;2.08;;;21.50;66.20;;;;;;6276592;28;20748;-89
2021/10/23 09:55:09;;;;;;;3.35;1.90;;;;;;;;;;6270613;28;20056;-89
2021/10/23 09:58:28;;;;;;;2.78;2.13;;;21.00;59.00;;;;;;6274955;28;20051;-89
2021/10/23 10:01:33;;;;;;;4.18;3.22;;;21.00;52.20;;;;;;6268013;28;20183;-88
2021/10/23 10:04:35;;;;;;;2.80;1.65;;;21.00;63.00;;;;;;6273507;28;20043;-89
2021/10/23 10:07:36;;;;;;;2.97;1.90;;;;;;;;;;6258941;28;20102;-89
2021/10/23 10:10:38;;;;;;;3.10;1.92;;;20.20;62.40;;;;;;6273788;28;20541;-88
2021/10/23 10:13:39;;;;;;;4.90;2.28;;;19.80;82.50;;;;;;6256649;28;20025;-82
2021/10/23 10:16:47;;;;;;;2.42;2.00;;;19.30;65.20;;;;;;6275776;28;20389;-87
2021/10/23 10:19:49;;;;;;;2.00;1.58;;;19.30;66.90;;;;;;6260284;28;20093;-84
2021/10/23 10:26:23;;;;;;;3.92;3.08;;;19.00;58.30;;;;;;6268145;28;20045;-86
2021/10/23 10:30:00;;;;;;;6.15;4.22;;;18.90;56.00;;;;;;6245269;28;20498;-86
2021/10/23 10:33:25;;;;;;;3.92;3.47;;;19.10;56.50;;;;;;6254010;28;20601;-89
2021/10/23 10:36:37;;;;;;;2.90;2.03;;;18.70;70.80;;;;;;6234689;28;20033;-87
2021/10/23 10:39:52;;;;;;;5.80;3.80;;;18.70;55.80;;;;;;6246467;28;20128;-88
2021/10/23 10:43:05;;;;;;;53.72;46.88;;;18.70;57.90;;;;;;6255591;28;20060;-87
2021/10/23 10:46:06;;;;;;;89.97;73.50;;;19.00;57.40;;;;;;6249468;28;20045;-88
2021/10/23 10:49:08;;;;;;;33.20;30.02;;;19.40;69.60;;;;;;6242984;28;20079;-87
2021/10/23 10:52:27;;;;;;;;;;;19.50;55.30;;;;;;6252154;28;20037;-87
2021/10/23 10:55:27;;;;;;;3.42;2.10;;;19.50;55.80;;;;;;6250346;28;19916;-87
2021/10/23 10:58:52;;;;;;;5.93;2.42;;;18.90;68.70;;;;;;6210733;28;20030;-87
2021/10/23 11:02:06;;;;;;;2.13;1.83;;;19.10;55.50;;;;;;6219073;28;20036;-88
2021/10/23 11:05:11;;;;;;;1.35;1.25;;;19.10;55.40;;;;;;6222235;28;20021;-87
2021/10/23 11:08:14;;;;;;;1.73;1.40;;;18.90;54.60;;;;;;6205737;28;20399;-88
2021/10/23 11:11:15;;;;;;;3.55;3.00;;;;;;;;;;6227346;28;20026;-87
2021/10/23 11:14:23;;;;;;;2.08;1.60;;;18.20;73.00;;;;;;6237816;28;20463;-88
2021/10/23 11:17:24;;;;;;;3.58;1.80;;;17.90;58.60;;;;;;6235514;28;20211;-87
2021/10/23 11:20:25;;;;;;;2.42;1.83;;;17.70;57.20;;;;;;6208996;28;20029;-87
2021/10/23 11:23:26;;;;;;;1.83;1.70;;;;;;;;;;6220053;28;20029;-87
2021/10/23 11:26:26;;;;;;;5.03;2.55;;;17.90;76.10;;;;;;6233648;28;20029;-87
2021/10/23 11:29:28;;;;;;;2.40;1.52;;;;;;;;;;6239749;28;20125;-88
2021/10/23 11:32:28;;;;;;;5.47;3.00;;;17.90;87.70;;;;;;6228350;28;20025;-87
2021/10/23 11:35:39;;;;;;;6.28;2.30;;;17.50;77.30;;;;;;6244525;28;20379;-88
2021/10/23 11:38:39;;;;;;;2.75;2.03;;;18.10;86.50;;;;;;6223046;28;20030;-88
2021/10/23 11:41:41;;;;;;;2.10;1.90;;;;;;;;;;6208572;28;20080;-87
2021/10/23 11:44:45;;;;;;;1.90;1.70;;;17.70;58.40;;;;;;6216713;28;20061;-88
2021/10/23 11:47:46;;;;;;;3.90;1.92;;;17.70;60.60;;;;;;6233621;28;20067;-87
2021/10/23 11:50:51;;;;;;;2.90;2.20;;;17.30;57.40;;;;;;6270889;28;20517;-87
2021/10/23 11:53:58;;;;;;;2.67;1.90;;;17.20;58.60;;;;;;6260381;28;20450;-88
2021/10/23 11:56:59;;;;;;;5.10;3.28;;;17.20;59.60;;;;;;6260052;28;20470;-87
2021/10/23 12:00:00;;;;;;;3.05;1.70;;;;;;;;;;6252746;28;20029;-87
2021/10/23 12:03:03;;;;;;;2.58;2.38;;;;;;;;;;6276316;28;20036;-87
2021/10/23 12:06:13;;;;;;;1.60;1.50;;;16.90;81.90;;;;;;6276300;28;20063;-87
2021/10/23 12:09:23;;;;;;;3.05;1.92;;;17.30;82.80;;;;;;6251953;28;20033;-82
2021/10/23 12:12:24;;;;;;;2.08;1.90;;;17.50;82.20;;;;;;6275182;28;20123;-83
2021/10/23 12:15:25;;;;;;;2.70;1.95;;;;;;;;;;6256575;28;20032;-84
2021/10/23 12:18:28;;;;;;;1.60;1.50;;;18.10;82.80;;;;;;6287978;28;20035;-84
2021/10/23 12:21:33;;;;;;;;;;;18.00;65.10;;;;;;6257623;28;20406;-87
2021/10/23 12:24:41;;;;;;;2.95;1.90;;;18.10;82.00;;;;;;6273395;28;19908;-86
2021/10/23 12:27:42;;;;;;;4.45;2.83;;;18.00;59.30;;;;;;6274255;28;20122;-86
2021/10/23 12:30:43;;;;;;;2.17;1.70;;;17.60;90.60;;;;;;6259890;28;20071;-83
2021/10/23 12:34:04;;;;;;;2.25;2.00;;;17.50;90.00;;;;;;6274153;28;20062;-84
2021/10/23 12:37:05;;;;;;;3.00;1.80;;;17.30;78.50;;;;;;6290176;28;20038;-84
2021/10/23 12:40:29;;;;;;;6.47;2.47;;;16.90;61.00;;;;;;6253425;28;20030;-81
2021/10/23 12:43:30;;;;;;;4.32;2.03;;;16.90;60.70;;;;;;6273641;28;20069;-83
2021/10/23 12:46:31;;;;;;;3.38;2.08;;;16.60;60.30;;;;;;6287273;28;20036;-83
2021/10/23 12:49:31;;;;;;;2.75;2.00;;;16.50;62.00;;;;;;6271731;28;20057;-84
2021/10/23 12:52:33;;;;;;;2.67;1.80;;;16.70;61.60;;;;;;6293094;28;20039;-84
2021/10/23 12:55:33;;;;;;;2.57;2.20;;;16.20;82.60;;;;;;6273307;28;20029;-82
2021/10/23 12:58:34;;;;;;;6.10;3.97;;;16.00;78.20;;;;;;6290537;28;20063;-81
2021/10/23 13:01:35;;;;;;;2.70;2.17;;;16.00;80.90;;;;;;6271919;28;20036;-84
2021/10/23 13:04:36;;;;;;;2.20;2.00;;;16.00;83.90;;;;;;6251902;28;20430;-85
2021/10/23 13:07:37;;;;;;;3.75;1.70;;;16.00;83.00;;;;;;6267153;28;20310;-83
2021/10/23 13:10:37;;;;;;;2.03;1.77;;;16.20;64.90;;;;;;6289172;28;20029;-85
2021/10/23 13:13:40;;;;;;;2.60;1.70;;;16.10;62.50;;;;;;6270873;28;20032;-84
2021/10/23 13:16:41;;;;;;;3.10;2.10;;;16.40;81.10;;;;;;6267493;28;20036;-80
2021/10/23 13:19:41;;;;;;;2.30;2.00;;;16.40;82.70;;;;;;6260207;28;20386;-79
2021/10/23 13:22:42;;;;;;;3.47;1.88;;;16.50;84.70;;;;;;6255847;28;20033;-80
2021/10/23 13:25:43;;;;;;;3.75;1.70;;;16.40;78.60;;;;;;6287778;28;20036;-80
2021/10/23 13:28:43;;;;;;;3.38;2.08;;;16.40;91.40;;;;;;6290447;28;20036;-81
2021/10/23 13:31:45;;;;;;;1.98;1.85;;;16.30;80.80;;;;;;6274362;28;20032;-80
2021/10/23 13:34:46;;;;;;;6.72;1.98;;;15.90;89.80;;;;;;6274209;28;20028;-80
2021/10/23 13:37:46;;;;;;;3.10;1.77;;;15.80;82.70;;;;;;6269720;28;20089;-79
2021/10/23 13:40:47;;;;;;;2.13;1.75;;;;;;;;;;6290852;28;20082;-80
2021/10/23 13:43:48;;;;;;;2.13;1.83;;;;;;;;;;6290985;28;20029;-79
2021/10/23 13:46:49;;;;;;;2.83;1.83;;;;;;;;;;6287690;28;20093;-80
2021/10/23 13:49:50;;;;;;;3.25;2.10;;;15.80;81.50;;;;;;6288297;28;20510;-81
2021/10/23 13:52:51;;;;;;;3.50;2.35;;;15.90;93.80;;;;;;6278130;28;20016;-80
2021/10/23 13:55:52;;;;;;;4.93;2.28;;;;;;;;;;6295031;28;20101;-83
2021/10/23 13:58:52;;;;;;;4.15;2.92;;;;;;;;;;6296402;28;20035;-82
2021/10/23 14:01:54;;;;;;;4.65;2.70;;;;;;;;;;6295153;28;20085;-84
2021/10/23 14:04:55;;;;;;;8.95;3.00;;;15.80;85.40;;;;;;6277097;28;20032;-82
2021/10/23 14:07:56;;;;;;;6.10;3.05;;;15.70;77.10;;;;;;6277150;28;20036;-82
2021/10/23 14:10:56;;;;;;;6.00;3.25;;;15.70;90.40;;;;;;6260694;28;20036;-84
2021/10/23 14:13:57;;;;;;;4.75;2.70;;;;;;;;;;6277249;28;20020;-84
2021/10/23 14:16:58;;;;;;;7.18;3.85;;;15.60;92.10;;;;;;6296511;28;20056;-83
2021/10/23 14:19:59;;;;;;;8.70;3.58;;;15.60;77.90;;;;;;6278878;28;20048;-83
2021/10/23 14:23:00;;;;;;;3.67;2.90;;;15.50;78.70;;;;;;6296167;28;20025;-83
2021/10/23 14:26:00;;;;;;;7.13;3.35;;;15.50;78.90;;;;;;6278243;28;20036;-83
2021/10/23 14:29:03;;;;;;;8.20;3.22;;;15.40;81.00;;;;;;6278191;28;20509;-83
2021/10/23 14:32:04;;;;;;;5.20;3.03;;;15.40;80.50;;;;;;6295178;28;20029;-88
2021/10/23 14:35:06;;;;;;;5.45;3.20;;;15.30;81.60;;;;;;6294571;28;20036;-82
2021/10/23 14:38:07;;;;;;;5.65;3.13;;;15.30;81.40;;;;;;6278192;28;20111;-82
2021/10/23 14:41:08;;;;;;;10.73;4.13;;;15.20;81.50;;;;;;6295173;28;20363;-82
2021/10/23 14:44:09;;;;;;;5.78;2.88;;;15.10;82.10;;;;;;6278387;28;20032;-83
2021/10/23 14:47:10;;;;;;;4.53;3.20;;;15.00;82.00;;;;;;6277846;28;20032;-85
2021/10/23 14:50:11;;;;;;;6.83;2.77;;;14.90;82.50;;;;;;6261215;28;20028;-85
2021/10/23 14:53:12;;;;;;;4.95;2.95;;;;;;;;;;6278045;28;20430;-83
2021/10/23 14:56:12;;;;;;;6.68;3.35;;;14.80;82.40;;;;;;6276704;28;20071;-83
2021/10/23 14:59:14;;;;;;;11.38;3.20;;;14.60;85.30;;;;;;6276850;28;20462;-86
2021/10/23 15:02:18;;;;;;;4.75;3.10;;;14.40;93.20;;;;;;6277179;28;20025;-87
2021/10/23 15:05:18;;;;;;;12.00;3.25;;;14.70;95.70;;;;;;6278286;28;20024;-82
2021/10/23 15:08:19;;;;;;;9.48;3.33;;;14.30;86.60;;;;;;6277302;28;20551;-83
2021/10/23 15:11:20;;;;;;;9.75;3.83;;;14.30;86.80;;;;;;6276882;28;20129;-83
2021/10/23 15:14:21;;;;;;;9.70;3.17;;;;;;;;;;6277164;28;20044;-82
2021/10/23 15:17:21;;;;;;;5.57;3.70;;;14.20;85.50;;;;;;6294578;28;20469;-82
2021/10/23 15:20:22;;;;;;;5.45;3.10;;;14.00;86.90;;;;;;6294759;28;20031;-82
2021/10/23 15:23:23;;;;;;;4.90;2.58;;;;;;;;;;6260560;28;20031;-83
2021/10/23 15:26:24;;;;;;;6.28;3.15;;;13.80;86.10;;;;;;6276935;28;20066;-80
2021/10/23 15:29:24;;;;;;;5.70;3.30;;;13.80;96.90;;;;;;6260034;28;20444;-81
2021/10/23 15:32:25;;;;;;;4.95;2.70;;;13.30;89.80;;;;;;6276348;28;20064;-83
2021/10/23 15:35:35;;;;;;;4.72;2.70;;;13.60;89.80;;;;;;6260627;28;20028;-84
2021/10/23 15:38:46;;;;;;;5.28;2.78;;;13.70;97.40;;;;;;6276207;28;20039;-83
2021/10/23 15:41:53;;;;;;;6.77;3.00;;;13.10;97.60;;;;;;6276931;28;20032;-86
2021/10/23 15:44:54;;;;;;;3.78;2.70;;;13.30;90.50;;;;;;6277535;28;20446;-84
2021/10/23 15:47:54;;;;;;;5.22;2.95;;;13.20;91.10;;;;;;6259777;28;20148;-81
2021/10/23 15:50:55;;;;;;;6.35;3.25;;;13.10;90.70;;;;;;6292539;28;20035;-82
2021/10/23 15:53:55;;;;;;;6.13;2.78;;;13.10;90.60;;;;;;6292847;28;20032;-83
2021/10/23 15:56:56;;;;;;;5.60;4.45;;;13.00;90.60;;;;;;6275575;28;20033;-85
2021/10/23 15:59:57;;;;;;;4.97;3.10;;;12.90;99.40;;;;;;6276380;28;20035;-84
2021/10/23 16:02:57;;;;;;;4.85;2.95;;;12.80;92.30;;;;;;6276129;28;20035;-81
2021/10/23 16:05:58;;;;;;;4.45;2.90;;;;;;;;;;6292692;28;20074;-84
2021/10/23 16:08:59;;;;;;;4.47;2.88;;;11.90;99.90;;;;;;6292715;28;20032;-82
2021/10/23 16:11:59;;;;;;;4.47;3.03;;;11.70;99.90;;;;;;6293054;28;20028;-81
2021/10/23 16:15:00;;;;;;;3.78;2.97;;;;;;;;;;6291935;28;20083;-81
2021/10/23 16:18:01;;;;;;;5.38;2.70;;;11.50;99.90;;;;;;6293036;28;20086;-79
2021/10/23 16:21:02;;;;;;;4.53;3.15;;;11.30;99.90;;;;;;6290852;28;20363;-83
2021/10/23 16:24:03;;;;;;;4.63;3.53;;;;;;;;;;6292588;28;20056;-82
2021/10/23 16:27:04;;;;;;;6.68;3.58;;;10.80;99.90;;;;;;6275351;28;20029;-83
2021/10/23 16:30:05;;;;;;;9.43;7.28;;;10.40;97.70;;;;;;6275250;28;20032;-83
2021/10/23 16:33:06;;;;;;;6.43;4.53;;;10.60;99.90;;;;;;6259262;28;20035;-82
2021/10/23 16:36:07;;;;;;;7.80;4.72;;;10.20;99.90;;;;;;6292005;28;20166;-88
2021/10/23 16:39:08;;;;;;;7.90;5.20;;;;;;;;;;6259695;28;20032;-80
2021/10/23 16:42:09;;;;;;;7.55;5.07;;;10.00;99.90;;;;;;6293181;28;20052;-83
2021/10/23 16:45:10;;;;;;;6.03;3.75;;;;;;;;;;6292214;28;20035;-81
2021/10/23 16:48:10;;;;;;;7.85;4.70;;;10.10;99.80;;;;;;6292007;28;20052;-82